Deloit, Iowa
Current Conditions -  °F | °C
As of 12:35 AM on Thursday 23 Oct 2014 (Local Time) from KDNS Reporting Station
Overcast Overcast  
Wind Chill: 57°   Ceiling: 2700
Heat Index: 57°   Visibility: 7mi
Dew Point: 57°   Wind: 13mph
Humidity: 100%   Direction: 160°SSE
Pressure: 30.02"   Gusts: 21mph
Location:  42.1°N, 95.32°W
Report Text: KDNS 230535Z AUTO 16011G18KT 7SM BKN027 BKN033 OVC070 14/14 A3002 RMK AO2
Loading
Personal Weather Stations






























Interactive Weather Map
Tropical Storm Tracking
New forecast layout! Learn more

10-Day Weather Forecast

Advertisements
Track Severe Weather on mobile